sensor_id;sensor_type;location;lat;lon;timestamp;P1;durP1;ratioP1;P2;durP2;ratioP2
17592;SDS011;8915;51.760;14.300;2022-08-26T00:00:39;11.77;;;9.03;;
17592;SDS011;8915;51.760;14.300;2022-08-26T00:03:05;14.20;;;9.03;;
17592;SDS011;8915;51.760;14.300;2022-08-26T00:05:33;17.37;;;9.10;;
17592;SDS011;8915;51.760;14.300;2022-08-26T00:08:00;15.80;;;9.67;;
17592;SDS011;8915;51.760;14.300;2022-08-26T00:10:27;14.50;;;10.33;;
17592;SDS011;8915;51.760;14.300;2022-08-26T00:12:53;15.10;;;9.70;;
17592;SDS011;8915;51.760;14.300;2022-08-26T00:15:19;14.87;;;8.97;;
17592;SDS011;8915;51.760;14.300;2022-08-26T00:17:48;13.23;;;9.23;;
17592;SDS011;8915;51.760;14.300;2022-08-26T00:20:16;18.73;;;9.73;;
17592;SDS011;8915;51.760;14.300;2022-08-26T00:22:46;16.30;;;9.43;;
17592;SDS011;8915;51.760;14.300;2022-08-26T00:25:13;17.90;;;10.50;;
17592;SDS011;8915;51.760;14.300;2022-08-26T00:27:40;14.53;;;9.40;;
17592;SDS011;8915;51.760;14.300;2022-08-26T00:30:09;14.73;;;9.50;;
17592;SDS011;8915;51.760;14.300;2022-08-26T00:32:37;13.87;;;9.50;;
17592;SDS011;8915;51.760;14.300;2022-08-26T00:35:04;13.63;;;9.93;;
17592;SDS011;8915;51.760;14.300;2022-08-26T00:37:32;16.07;;;10.03;;
17592;SDS011;8915;51.760;14.300;2022-08-26T00:40:01;14.83;;;10.23;;
17592;SDS011;8915;51.760;14.300;2022-08-26T00:42:27;14.53;;;9.27;;
17592;SDS011;8915;51.760;14.300;2022-08-26T00:44:54;13.33;;;9.43;;
17592;SDS011;8915;51.760;14.300;2022-08-26T00:47:21;17.70;;;9.10;;
17592;SDS011;8915;51.760;14.300;2022-08-26T00:49:53;11.83;;;9.53;;
17592;SDS011;8915;51.760;14.300;2022-08-26T00:52:20;12.77;;;8.97;;
17592;SDS011;8915;51.760;14.300;2022-08-26T00:54:49;16.13;;;9.53;;
17592;SDS011;8915;51.760;14.300;2022-08-26T00:57:22;14.33;;;9.40;;
17592;SDS011;8915;51.760;14.300;2022-08-26T00:59:50;12.30;;;9.10;;
17592;SDS011;8915;51.760;14.300;2022-08-26T01:02:20;15.47;;;9.10;;
17592;SDS011;8915;51.760;14.300;2022-08-26T01:04:48;11.93;;;8.70;;
17592;SDS011;8915;51.760;14.300;2022-08-26T01:07:16;19.20;;;9.83;;
17592;SDS011;8915;51.760;14.300;2022-08-26T01:09:44;21.67;;;9.63;;
17592;SDS011;8915;51.760;14.300;2022-08-26T01:12:10;13.67;;;9.80;;
17592;SDS011;8915;51.760;14.300;2022-08-26T01:14:38;12.60;;;9.17;;
17592;SDS011;8915;51.760;14.300;2022-08-26T01:17:05;17.83;;;9.77;;
17592;SDS011;8915;51.760;14.300;2022-08-26T01:19:35;15.87;;;9.53;;
17592;SDS011;8915;51.760;14.300;2022-08-26T01:22:10;14.07;;;9.47;;
17592;SDS011;8915;51.760;14.300;2022-08-26T01:24:43;14.77;;;9.50;;
17592;SDS011;8915;51.760;14.300;2022-08-26T01:27:10;13.50;;;9.37;;
17592;SDS011;8915;51.760;14.300;2022-08-26T01:29:39;13.43;;;9.80;;
17592;SDS011;8915;51.760;14.300;2022-08-26T01:32:09;13.03;;;9.83;;
17592;SDS011;8915;51.760;14.300;2022-08-26T01:34:39;14.80;;;8.70;;
17592;SDS011;8915;51.760;14.300;2022-08-26T01:37:06;19.53;;;10.40;;
17592;SDS011;8915;51.760;14.300;2022-08-26T01:39:36;15.23;;;9.43;;
17592;SDS011;8915;51.760;14.300;2022-08-26T01:42:07;12.17;;;9.40;;
17592;SDS011;8915;51.760;14.300;2022-08-26T01:44:38;16.40;;;11.07;;
17592;SDS011;8915;51.760;14.300;2022-08-26T01:47:09;14.87;;;10.97;;
17592;SDS011;8915;51.760;14.300;2022-08-26T01:49:38;16.90;;;12.37;;
17592;SDS011;8915;51.760;14.300;2022-08-26T01:52:06;19.40;;;11.60;;
17592;SDS011;8915;51.760;14.300;2022-08-26T01:54:35;18.70;;;12.03;;
17592;SDS011;8915;51.760;14.300;2022-08-26T01:57:01;17.30;;;12.00;;
17592;SDS011;8915;51.760;14.300;2022-08-26T01:59:30;20.63;;;11.87;;
17592;SDS011;8915;51.760;14.300;2022-08-26T02:01:57;19.30;;;12.07;;
17592;SDS011;8915;51.760;14.300;2022-08-26T02:04:24;18.93;;;12.73;;
17592;SDS011;8915;51.760;14.300;2022-08-26T02:06:54;16.67;;;11.50;;
17592;SDS011;8915;51.760;14.300;2022-08-26T02:09:22;14.60;;;11.07;;
17592;SDS011;8915;51.760;14.300;2022-08-26T02:11:49;22.37;;;11.07;;
17592;SDS011;8915;51.760;14.300;2022-08-26T02:14:17;17.23;;;10.80;;
17592;SDS011;8915;51.760;14.300;2022-08-26T02:16:48;16.33;;;10.87;;
17592;SDS011;8915;51.760;14.300;2022-08-26T02:19:18;12.53;;;10.53;;
17592;SDS011;8915;51.760;14.300;2022-08-26T02:21:46;15.07;;;9.53;;
17592;SDS011;8915;51.760;14.300;2022-08-26T02:24:15;16.53;;;10.33;;
17592;SDS011;8915;51.760;14.300;2022-08-26T02:26:43;17.90;;;10.33;;
17592;SDS011;8915;51.760;14.300;2022-08-26T02:29:12;18.57;;;11.57;;
17592;SDS011;8915;51.760;14.300;2022-08-26T02:31:44;15.63;;;10.70;;
17592;SDS011;8915;51.760;14.300;2022-08-26T02:34:14;14.77;;;10.30;;
17592;SDS011;8915;51.760;14.300;2022-08-26T02:36:44;20.37;;;10.63;;
17592;SDS011;8915;51.760;14.300;2022-08-26T02:39:10;14.13;;;10.67;;
17592;SDS011;8915;51.760;14.300;2022-08-26T02:41:37;13.93;;;10.10;;
17592;SDS011;8915;51.760;14.300;2022-08-26T02:44:04;14.77;;;10.30;;
17592;SDS011;8915;51.760;14.300;2022-08-26T02:46:31;13.10;;;9.87;;
17592;SDS011;8915;51.760;14.300;2022-08-26T02:48:57;13.23;;;9.63;;
17592;SDS011;8915;51.760;14.300;2022-08-26T02:51:26;12.77;;;9.77;;
17592;SDS011;8915;51.760;14.300;2022-08-26T02:53:53;15.80;;;9.43;;
17592;SDS011;8915;51.760;14.300;2022-08-26T02:56:19;14.43;;;10.37;;
17592;SDS011;8915;51.760;14.300;2022-08-26T02:58:45;18.33;;;10.83;;
17592;SDS011;8915;51.760;14.300;2022-08-26T03:01:22;18.87;;;10.67;;
17592;SDS011;8915;51.760;14.300;2022-08-26T03:03:49;14.47;;;10.90;;
17592;SDS011;8915;51.760;14.300;2022-08-26T03:06:16;14.90;;;10.43;;
17592;SDS011;8915;51.760;14.300;2022-08-26T03:08:44;14.80;;;11.00;;
17592;SDS011;8915;51.760;14.300;2022-08-26T03:11:12;17.93;;;11.97;;
17592;SDS011;8915;51.760;14.300;2022-08-26T03:13:39;16.10;;;10.80;;
17592;SDS011;8915;51.760;14.300;2022-08-26T03:16:06;22.10;;;11.27;;
17592;SDS011;8915;51.760;14.300;2022-08-26T03:18:34;17.90;;;11.60;;
17592;SDS011;8915;51.760;14.300;2022-08-26T03:21:03;14.03;;;10.40;;
17592;SDS011;8915;51.760;14.300;2022-08-26T03:23:31;14.30;;;10.10;;
17592;SDS011;8915;51.760;14.300;2022-08-26T03:25:59;13.83;;;10.17;;
17592;SDS011;8915;51.760;14.300;2022-08-26T03:28:26;14.43;;;10.10;;
17592;SDS011;8915;51.760;14.300;2022-08-26T03:30:53;14.00;;;9.93;;
17592;SDS011;8915;51.760;14.300;2022-08-26T03:33:18;17.83;;;10.83;;
17592;SDS011;8915;51.760;14.300;2022-08-26T03:35:45;13.73;;;10.07;;
17592;SDS011;8915;51.760;14.300;2022-08-26T03:38:12;15.50;;;10.43;;
17592;SDS011;8915;51.760;14.300;2022-08-26T03:40:39;12.67;;;9.97;;
17592;SDS011;8915;51.760;14.300;2022-08-26T03:43:09;15.30;;;10.47;;
17592;SDS011;8915;51.760;14.300;2022-08-26T03:45:36;13.70;;;10.40;;
17592;SDS011;8915;51.760;14.300;2022-08-26T03:48:03;12.07;;;9.23;;
17592;SDS011;8915;51.760;14.300;2022-08-26T03:50:30;18.77;;;10.87;;
17592;SDS011;8915;51.760;14.300;2022-08-26T03:52:57;14.93;;;11.30;;
17592;SDS011;8915;51.760;14.300;2022-08-26T03:55:24;13.73;;;10.17;;
17592;SDS011;8915;51.760;14.300;2022-08-26T03:57:56;15.93;;;10.70;;
17592;SDS011;8915;51.760;14.300;2022-08-26T04:00:24;14.33;;;10.07;;
17592;SDS011;8915;51.760;14.300;2022-08-26T04:02:51;16.03;;;11.90;;
17592;SDS011;8915;51.760;14.300;2022-08-26T04:05:18;16.70;;;11.23;;
17592;SDS011;8915;51.760;14.300;2022-08-26T04:07:45;15.83;;;10.53;;
17592;SDS011;8915;51.760;14.300;2022-08-26T04:10:14;17.00;;;11.63;;
17592;SDS011;8915;51.760;14.300;2022-08-26T04:12:42;17.33;;;10.50;;
17592;SDS011;8915;51.760;14.300;2022-08-26T04:15:10;15.07;;;9.27;;
17592;SDS011;8915;51.760;14.300;2022-08-26T04:17:40;13.97;;;10.60;;
17592;SDS011;8915;51.760;14.300;2022-08-26T04:20:07;15.37;;;10.00;;
17592;SDS011;8915;51.760;14.300;2022-08-26T04:22:38;12.07;;;10.50;;
17592;SDS011;8915;51.760;14.300;2022-08-26T04:25:05;18.13;;;11.03;;
17592;SDS011;8915;51.760;14.300;2022-08-26T04:27:32;15.53;;;11.33;;
17592;SDS011;8915;51.760;14.300;2022-08-26T04:29:58;18.97;;;11.33;;
17592;SDS011;8915;51.760;14.300;2022-08-26T04:32:25;16.03;;;10.73;;
17592;SDS011;8915;51.760;14.300;2022-08-26T04:34:52;16.13;;;10.23;;
17592;SDS011;8915;51.760;14.300;2022-08-26T04:37:19;15.97;;;11.80;;
17592;SDS011;8915;51.760;14.300;2022-08-26T04:39:49;16.53;;;10.87;;
17592;SDS011;8915;51.760;14.300;2022-08-26T04:42:16;15.23;;;11.50;;
17592;SDS011;8915;51.760;14.300;2022-08-26T04:44:42;15.23;;;11.07;;
17592;SDS011;8915;51.760;14.300;2022-08-26T04:47:10;13.67;;;11.23;;
17592;SDS011;8915;51.760;14.300;2022-08-26T04:49:37;16.20;;;11.77;;
17592;SDS011;8915;51.760;14.300;2022-08-26T04:52:04;16.90;;;12.20;;
17592;SDS011;8915;51.760;14.300;2022-08-26T04:54:31;20.27;;;12.10;;
17592;SDS011;8915;51.760;14.300;2022-08-26T04:56:58;18.83;;;13.10;;
17592;SDS011;8915;51.760;14.300;2022-08-26T04:59:24;19.30;;;13.03;;
17592;SDS011;8915;51.760;14.300;2022-08-26T05:01:51;17.80;;;12.53;;
17592;SDS011;8915;51.760;14.300;2022-08-26T05:04:20;14.27;;;11.23;;
17592;SDS011;8915;51.760;14.300;2022-08-26T05:06:46;16.77;;;12.10;;
17592;SDS011;8915;51.760;14.300;2022-08-26T05:09:15;18.47;;;12.30;;
17592;SDS011;8915;51.760;14.300;2022-08-26T05:11:43;24.10;;;13.37;;
17592;SDS011;8915;51.760;14.300;2022-08-26T05:14:10;18.27;;;13.00;;
17592;SDS011;8915;51.760;14.300;2022-08-26T05:16:36;21.17;;;12.80;;
17592;SDS011;8915;51.760;14.300;2022-08-26T05:19:03;16.00;;;12.40;;
17592;SDS011;8915;51.760;14.300;2022-08-26T05:21:30;23.43;;;13.83;;
17592;SDS011;8915;51.760;14.300;2022-08-26T05:23:58;20.87;;;13.47;;
17592;SDS011;8915;51.760;14.300;2022-08-26T05:26:28;18.20;;;13.23;;
17592;SDS011;8915;51.760;14.300;2022-08-26T05:28:55;18.90;;;13.63;;
17592;SDS011;8915;51.760;14.300;2022-08-26T05:31:23;18.70;;;13.30;;
17592;SDS011;8915;51.760;14.300;2022-08-26T05:33:51;18.10;;;12.80;;
17592;SDS011;8915;51.760;14.300;2022-08-26T05:36:19;24.00;;;13.00;;
17592;SDS011;8915;51.760;14.300;2022-08-26T05:38:46;18.47;;;12.93;;
17592;SDS011;8915;51.760;14.300;2022-08-26T05:41:14;22.70;;;14.03;;
17592;SDS011;8915;51.760;14.300;2022-08-26T05:43:43;17.77;;;13.70;;
17592;SDS011;8915;51.760;14.300;2022-08-26T05:46:10;19.53;;;13.90;;
17592;SDS011;8915;51.760;14.300;2022-08-26T05:48:37;21.23;;;12.70;;
17592;SDS011;8915;51.760;14.300;2022-08-26T05:51:04;20.77;;;13.43;;
17592;SDS011;8915;51.760;14.300;2022-08-26T05:53:33;16.97;;;12.67;;
17592;SDS011;8915;51.760;14.300;2022-08-26T05:56:02;21.73;;;13.50;;
17592;SDS011;8915;51.760;14.300;2022-08-26T05:58:30;18.53;;;12.57;;
17592;SDS011;8915;51.760;14.300;2022-08-26T06:01:01;18.67;;;13.23;;
17592;SDS011;8915;51.760;14.300;2022-08-26T06:03:30;18.67;;;13.30;;
17592;SDS011;8915;51.760;14.300;2022-08-26T06:05:58;19.03;;;13.07;;
17592;SDS011;8915;51.760;14.300;2022-08-26T06:08:27;21.70;;;13.27;;
17592;SDS011;8915;51.760;14.300;2022-08-26T06:10:54;21.13;;;12.87;;
17592;SDS011;8915;51.760;14.300;2022-08-26T06:13:25;27.67;;;13.33;;
17592;SDS011;8915;51.760;14.300;2022-08-26T06:15:53;16.43;;;12.43;;
17592;SDS011;8915;51.760;14.300;2022-08-26T06:18:23;16.67;;;12.20;;
17592;SDS011;8915;51.760;14.300;2022-08-26T06:20:54;16.17;;;11.65;;
17592;SDS011;8915;51.760;14.300;2022-08-26T06:23:21;19.45;;;11.50;;
17592;SDS011;8915;51.760;14.300;2022-08-26T06:26:05;16.30;;;11.32;;
17592;SDS011;8915;51.760;14.300;2022-08-26T06:28:32;16.10;;;11.13;;
17592;SDS011;8915;51.760;14.300;2022-08-26T06:30:58;18.05;;;11.57;;
17592;SDS011;8915;51.760;14.300;2022-08-26T06:33:28;15.13;;;11.10;;
17592;SDS011;8915;51.760;14.300;2022-08-26T06:35:56;18.13;;;10.35;;
17592;SDS011;8915;51.760;14.300;2022-08-26T06:38:25;14.57;;;10.88;;
17592;SDS011;8915;51.760;14.300;2022-08-26T06:40:52;16.42;;;10.30;;
17592;SDS011;8915;51.760;14.300;2022-08-26T06:43:19;15.50;;;10.85;;
17592;SDS011;8915;51.760;14.300;2022-08-26T06:45:48;14.85;;;9.80;;
17592;SDS011;8915;51.760;14.300;2022-08-26T06:48:16;14.50;;;10.30;;
17592;SDS011;8915;51.760;14.300;2022-08-26T06:50:45;14.35;;;10.30;;
17592;SDS011;8915;51.760;14.300;2022-08-26T06:53:12;15.18;;;11.05;;
17592;SDS011;8915;51.760;14.300;2022-08-26T06:55:39;17.15;;;10.57;;
17592;SDS011;8915;51.760;14.300;2022-08-26T06:58:06;17.10;;;10.50;;
17592;SDS011;8915;51.760;14.300;2022-08-26T07:00:33;15.38;;;10.02;;
17592;SDS011;8915;51.760;14.300;2022-08-26T07:03:00;15.13;;;10.25;;
17592;SDS011;8915;51.760;14.300;2022-08-26T07:05:27;14.07;;;10.02;;
17592;SDS011;8915;51.760;14.300;2022-08-26T07:07:54;16.20;;;10.35;;
17592;SDS011;8915;51.760;14.300;2022-08-26T07:10:22;16.98;;;10.32;;
17592;SDS011;8915;51.760;14.300;2022-08-26T07:12:48;15.40;;;10.27;;
17592;SDS011;8915;51.760;14.300;2022-08-26T07:15:15;13.63;;;10.23;;
17592;SDS011;8915;51.760;14.300;2022-08-26T07:17:42;13.88;;;10.43;;
17592;SDS011;8915;51.760;14.300;2022-08-26T07:20:09;22.90;;;10.27;;
17592;SDS011;8915;51.760;14.300;2022-08-26T07:22:35;18.23;;;10.38;;
17592;SDS011;8915;51.760;14.300;2022-08-26T07:25:04;16.05;;;10.45;;
17592;SDS011;8915;51.760;14.300;2022-08-26T07:27:33;14.70;;;9.93;;
17592;SDS011;8915;51.760;14.300;2022-08-26T07:29:59;16.35;;;10.02;;
17592;SDS011;8915;51.760;14.300;2022-08-26T07:32:26;16.95;;;9.65;;
17592;SDS011;8915;51.760;14.300;2022-08-26T07:34:52;12.05;;;9.18;;
17592;SDS011;8915;51.760;14.300;2022-08-26T07:37:19;17.15;;;8.70;;
17592;SDS011;8915;51.760;14.300;2022-08-26T07:39:46;15.05;;;9.68;;
17592;SDS011;8915;51.760;14.300;2022-08-26T07:42:15;15.38;;;9.00;;
17592;SDS011;8915;51.760;14.300;2022-08-26T07:44:43;12.25;;;8.43;;
17592;SDS011;8915;51.760;14.300;2022-08-26T07:47:10;14.55;;;9.07;;
17592;SDS011;8915;51.760;14.300;2022-08-26T07:49:37;11.88;;;8.48;;
17592;SDS011;8915;51.760;14.300;2022-08-26T07:52:03;13.20;;;9.57;;
17592;SDS011;8915;51.760;14.300;2022-08-26T07:54:31;11.18;;;8.15;;
17592;SDS011;8915;51.760;14.300;2022-08-26T07:56:57;16.30;;;9.18;;
17592;SDS011;8915;51.760;14.300;2022-08-26T07:59:25;14.10;;;9.27;;
17592;SDS011;8915;51.760;14.300;2022-08-26T08:01:51;16.05;;;9.13;;
17592;SDS011;8915;51.760;14.300;2022-08-26T08:04:18;14.95;;;9.65;;
17592;SDS011;8915;51.760;14.300;2022-08-26T08:06:44;12.27;;;8.98;;
17592;SDS011;8915;51.760;14.300;2022-08-26T08:09:11;14.07;;;9.18;;
17592;SDS011;8915;51.760;14.300;2022-08-26T08:11:39;12.10;;;8.80;;
17592;SDS011;8915;51.760;14.300;2022-08-26T08:14:06;16.02;;;9.43;;
17592;SDS011;8915;51.760;14.300;2022-08-26T08:16:34;18.45;;;9.57;;
17592;SDS011;8915;51.760;14.300;2022-08-26T08:19:01;12.45;;;8.80;;
17592;SDS011;8915;51.760;14.300;2022-08-26T08:21:27;13.00;;;8.07;;
17592;SDS011;8915;51.760;14.300;2022-08-26T08:23:55;11.23;;;9.13;;
17592;SDS011;8915;51.760;14.300;2022-08-26T08:26:23;12.27;;;8.57;;
17592;SDS011;8915;51.760;14.300;2022-08-26T08:28:52;13.15;;;9.25;;
17592;SDS011;8915;51.760;14.300;2022-08-26T08:31:20;13.20;;;8.95;;
17592;SDS011;8915;51.760;14.300;2022-08-26T08:33:50;12.95;;;8.25;;
17592;SDS011;8915;51.760;14.300;2022-08-26T08:36:16;13.90;;;8.00;;
17592;SDS011;8915;51.760;14.300;2022-08-26T08:38:43;13.57;;;9.13;;
17592;SDS011;8915;51.760;14.300;2022-08-26T08:41:15;16.67;;;8.95;;
17592;SDS011;8915;51.760;14.300;2022-08-26T08:43:51;11.18;;;8.02;;
17592;SDS011;8915;51.760;14.300;2022-08-26T08:46:19;14.27;;;8.32;;
17592;SDS011;8915;51.760;14.300;2022-08-26T08:48:47;12.88;;;9.00;;
17592;SDS011;8915;51.760;14.300;2022-08-26T08:51:22;10.95;;;8.52;;
17592;SDS011;8915;51.760;14.300;2022-08-26T08:53:56;14.18;;;7.95;;
17592;SDS011;8915;51.760;14.300;2022-08-26T08:56:25;13.10;;;7.68;;
17592;SDS011;8915;51.760;14.300;2022-08-26T08:58:58;11.00;;;7.90;;
17592;SDS011;8915;51.760;14.300;2022-08-26T09:01:34;9.80;;;7.80;;
17592;SDS011;8915;51.760;14.300;2022-08-26T09:04:12;11.85;;;7.97;;
17592;SDS011;8915;51.760;14.300;2022-08-26T09:06:44;15.60;;;7.90;;
17592;SDS011;8915;51.760;14.300;2022-08-26T09:09:13;15.80;;;7.65;;
17592;SDS011;8915;51.760;14.300;2022-08-26T09:11:46;13.80;;;7.72;;
17592;SDS011;8915;51.760;14.300;2022-08-26T09:14:13;11.57;;;7.65;;
17592;SDS011;8915;51.760;14.300;2022-08-26T09:16:41;14.15;;;7.10;;
17592;SDS011;8915;51.760;14.300;2022-08-26T09:19:18;10.38;;;7.28;;
17592;SDS011;8915;51.760;14.300;2022-08-26T09:21:53;12.18;;;7.40;;
17592;SDS011;8915;51.760;14.300;2022-08-26T09:24:21;12.13;;;7.40;;
17592;SDS011;8915;51.760;14.300;2022-08-26T09:26:47;13.35;;;7.35;;
17592;SDS011;8915;51.760;14.300;2022-08-26T09:29:21;13.27;;;8.00;;
17592;SDS011;8915;51.760;14.300;2022-08-26T09:31:49;11.30;;;7.60;;
17592;SDS011;8915;51.760;14.300;2022-08-26T09:34:19;8.52;;;6.97;;
17592;SDS011;8915;51.760;14.300;2022-08-26T09:36:48;10.32;;;7.57;;
17592;SDS011;8915;51.760;14.300;2022-08-26T09:39:26;12.82;;;7.30;;
17592;SDS011;8915;51.760;14.300;2022-08-26T09:42:05;10.32;;;6.78;;
17592;SDS011;8915;51.760;14.300;2022-08-26T09:44:34;7.90;;;6.30;;
17592;SDS011;8915;51.760;14.300;2022-08-26T09:47:01;7.03;;;5.95;;
17592;SDS011;8915;51.760;14.300;2022-08-26T09:49:32;11.27;;;6.75;;
17592;SDS011;8915;51.760;14.300;2022-08-26T09:54:59;12.13;;;6.63;;
17592;SDS011;8915;51.760;14.300;2022-08-26T09:57:29;10.52;;;5.85;;
17592;SDS011;8915;51.760;14.300;2022-08-26T09:59:58;9.45;;;5.93;;
17592;SDS011;8915;51.760;14.300;2022-08-26T10:02:38;10.68;;;6.88;;
17592;SDS011;8915;51.760;14.300;2022-08-26T10:05:14;10.60;;;6.65;;
17592;SDS011;8915;51.760;14.300;2022-08-26T10:07:45;10.85;;;6.68;;
17592;SDS011;8915;51.760;14.300;2022-08-26T10:10:14;9.88;;;5.93;;
17592;SDS011;8915;51.760;14.300;2022-08-26T10:12:48;6.63;;;5.47;;
17592;SDS011;8915;51.760;14.300;2022-08-26T10:15:20;8.43;;;6.45;;
17592;SDS011;8915;51.760;14.300;2022-08-26T10:21:37;13.18;;;5.10;;
17592;SDS011;8915;51.760;14.300;2022-08-26T10:24:08;10.43;;;5.13;;
17592;SDS011;8915;51.760;14.300;2022-08-26T10:26:39;9.15;;;5.93;;
17592;SDS011;8915;51.760;14.300;2022-08-26T10:29:12;8.88;;;5.80;;
17592;SDS011;8915;51.760;14.300;2022-08-26T10:31:45;7.68;;;5.70;;
17592;SDS011;8915;51.760;14.300;2022-08-26T10:34:16;9.88;;;5.10;;
17592;SDS011;8915;51.760;14.300;2022-08-26T10:36:51;12.93;;;5.65;;
17592;SDS011;8915;51.760;14.300;2022-08-26T10:39:22;9.05;;;4.78;;
17592;SDS011;8915;51.760;14.300;2022-08-26T10:41:54;6.53;;;5.15;;
17592;SDS011;8915;51.760;14.300;2022-08-26T10:44:25;9.27;;;4.95;;
17592;SDS011;8915;51.760;14.300;2022-08-26T10:46:56;9.38;;;5.30;;
17592;SDS011;8915;51.760;14.300;2022-08-26T10:49:26;7.45;;;5.15;;
17592;SDS011;8915;51.760;14.300;2022-08-26T10:51:55;6.22;;;4.75;;
17592;SDS011;8915;51.760;14.300;2022-08-26T10:54:31;9.05;;;4.35;;
17592;SDS011;8915;51.760;14.300;2022-08-26T10:57:10;7.00;;;5.43;;
17592;SDS011;8915;51.760;14.300;2022-08-26T10:59:47;10.23;;;4.70;;
17592;SDS011;8915;51.760;14.300;2022-08-26T11:02:22;8.18;;;5.03;;
17592;SDS011;8915;51.760;14.300;2022-08-26T11:04:57;6.63;;;4.72;;
17592;SDS011;8915;51.760;14.300;2022-08-26T11:07:34;9.13;;;4.32;;
17592;SDS011;8915;51.760;14.300;2022-08-26T11:10:04;6.13;;;4.00;;
17592;SDS011;8915;51.760;14.300;2022-08-26T11:18:39;5.10;;;4.32;;
17592;SDS011;8915;51.760;14.300;2022-08-26T11:30:54;6.38;;;4.47;;
17592;SDS011;8915;51.760;14.300;2022-08-26T11:36:28;7.13;;;4.13;;
17592;SDS011;8915;51.760;14.300;2022-08-26T11:39:00;6.70;;;4.63;;
17592;SDS011;8915;51.760;14.300;2022-08-26T11:41:28;7.97;;;4.95;;
17592;SDS011;8915;51.760;14.300;2022-08-26T11:43:56;7.65;;;4.88;;
17592;SDS011;8915;51.760;14.300;2022-08-26T11:46:25;8.18;;;4.75;;
17592;SDS011;8915;51.760;14.300;2022-08-26T11:48:58;9.55;;;5.00;;
17592;SDS011;8915;51.760;14.300;2022-08-26T11:51:26;5.93;;;4.57;;
17592;SDS011;8915;51.760;14.300;2022-08-26T11:54:06;7.07;;;4.70;;
17592;SDS011;8915;51.760;14.300;2022-08-26T11:56:34;7.40;;;4.68;;
17592;SDS011;8915;51.760;14.300;2022-08-26T11:59:02;8.02;;;4.13;;
17592;SDS011;8915;51.760;14.300;2022-08-26T12:01:36;5.80;;;4.40;;
17592;SDS011;8915;51.760;14.300;2022-08-26T12:04:09;7.32;;;4.03;;
17592;SDS011;8915;51.760;14.300;2022-08-26T12:06:43;7.82;;;4.85;;
17592;SDS011;8915;51.760;14.300;2022-08-26T12:09:13;7.43;;;4.45;;
17592;SDS011;8915;51.760;14.300;2022-08-26T12:11:46;8.20;;;4.25;;
17592;SDS011;8915;51.760;14.300;2022-08-26T12:14:15;8.63;;;4.50;;
17592;SDS011;8915;51.760;14.300;2022-08-26T12:16:44;6.22;;;4.63;;
17592;SDS011;8915;51.760;14.300;2022-08-26T12:19:20;6.60;;;4.55;;
17592;SDS011;8915;51.760;14.300;2022-08-26T12:21:50;6.85;;;4.00;;
17592;SDS011;8915;51.760;14.300;2022-08-26T12:24:20;7.35;;;4.30;;
17592;SDS011;8915;51.760;14.300;2022-08-26T12:26:49;8.70;;;5.00;;
17592;SDS011;8915;51.760;14.300;2022-08-26T12:29:27;6.65;;;4.20;;
17592;SDS011;8915;51.760;14.300;2022-08-26T12:32:06;9.38;;;4.43;;
17592;SDS011;8915;51.760;14.300;2022-08-26T12:34:37;7.78;;;4.38;;
17592;SDS011;8915;51.760;14.300;2022-08-26T12:37:04;7.50;;;4.57;;
17592;SDS011;8915;51.760;14.300;2022-08-26T12:39:32;7.80;;;4.47;;
17592;SDS011;8915;51.760;14.300;2022-08-26T12:42:00;5.72;;;4.03;;
17592;SDS011;8915;51.760;14.300;2022-08-26T12:44:29;7.43;;;4.22;;
17592;SDS011;8915;51.760;14.300;2022-08-26T12:47:18;6.05;;;4.20;;
17592;SDS011;8915;51.760;14.300;2022-08-26T12:49:56;8.98;;;4.72;;
17592;SDS011;8915;51.760;14.300;2022-08-26T12:52:25;6.25;;;4.18;;
17592;SDS011;8915;51.760;14.300;2022-08-26T12:54:57;6.22;;;3.97;;
17592;SDS011;8915;51.760;14.300;2022-08-26T12:57:27;10.50;;;4.10;;
17592;SDS011;8915;51.760;14.300;2022-08-26T13:02:50;10.02;;;4.40;;
17592;SDS011;8915;51.760;14.300;2022-08-26T13:05:18;6.45;;;3.85;;
17592;SDS011;8915;51.760;14.300;2022-08-26T13:10:39;8.98;;;3.95;;
17592;SDS011;8915;51.760;14.300;2022-08-26T13:13:06;4.40;;;3.53;;
17592;SDS011;8915;51.760;14.300;2022-08-26T13:15:33;8.18;;;3.85;;
17592;SDS011;8915;51.760;14.300;2022-08-26T13:18:01;6.32;;;3.50;;
17592;SDS011;8915;51.760;14.300;2022-08-26T13:20:28;9.48;;;3.70;;
17592;SDS011;8915;51.760;14.300;2022-08-26T13:22:54;4.90;;;2.78;;
17592;SDS011;8915;51.760;14.300;2022-08-26T13:25:21;5.43;;;3.40;;
17592;SDS011;8915;51.760;14.300;2022-08-26T13:27:47;7.97;;;3.47;;
17592;SDS011;8915;51.760;14.300;2022-08-26T13:30:14;6.00;;;3.50;;
17592;SDS011;8915;51.760;14.300;2022-08-26T13:40:30;6.10;;;3.47;;
17592;SDS011;8915;51.760;14.300;2022-08-26T13:42:56;5.32;;;3.15;;
17592;SDS011;8915;51.760;14.300;2022-08-26T13:45:23;7.07;;;3.80;;
17592;SDS011;8915;51.760;14.300;2022-08-26T13:47:49;3.83;;;3.40;;
17592;SDS011;8915;51.760;14.300;2022-08-26T13:50:15;6.75;;;3.75;;
17592;SDS011;8915;51.760;14.300;2022-08-26T13:52:42;6.35;;;3.40;;
17592;SDS011;8915;51.760;14.300;2022-08-26T13:55:09;6.47;;;3.72;;
17592;SDS011;8915;51.760;14.300;2022-08-26T13:57:37;8.23;;;3.55;;
17592;SDS011;8915;51.760;14.300;2022-08-26T14:00:04;6.55;;;3.67;;
17592;SDS011;8915;51.760;14.300;2022-08-26T14:02:34;5.28;;;3.28;;
17592;SDS011;8915;51.760;14.300;2022-08-26T14:05:00;7.32;;;4.05;;
17592;SDS011;8915;51.760;14.300;2022-08-26T14:07:26;8.50;;;4.18;;
17592;SDS011;8915;51.760;14.300;2022-08-26T14:09:53;6.80;;;4.43;;
17592;SDS011;8915;51.760;14.300;2022-08-26T14:12:19;7.45;;;3.70;;
17592;SDS011;8915;51.760;14.300;2022-08-26T14:14:47;7.65;;;3.70;;
17592;SDS011;8915;51.760;14.300;2022-08-26T14:17:16;8.80;;;2.38;;
17592;SDS011;8915;51.760;14.300;2022-08-26T14:19:45;6.65;;;2.55;;
17592;SDS011;8915;51.760;14.300;2022-08-26T14:22:12;2.17;;;1.88;;
17592;SDS011;8915;51.760;14.300;2022-08-26T14:24:40;4.43;;;1.63;;
17592;SDS011;8915;51.760;14.300;2022-08-26T14:27:07;4.72;;;2.53;;
17592;SDS011;8915;51.760;14.300;2022-08-26T14:29:33;9.93;;;2.90;;
17592;SDS011;8915;51.760;14.300;2022-08-26T14:32:03;6.93;;;3.55;;
17592;SDS011;8915;51.760;14.300;2022-08-26T14:34:35;6.47;;;3.78;;
17592;SDS011;8915;51.760;14.300;2022-08-26T14:37:02;4.95;;;3.90;;
17592;SDS011;8915;51.760;14.300;2022-08-26T14:39:29;2.83;;;2.10;;
17592;SDS011;8915;51.760;14.300;2022-08-26T14:41:55;4.03;;;3.50;;
17592;SDS011;8915;51.760;14.300;2022-08-26T14:44:23;3.97;;;3.55;;
17592;SDS011;8915;51.760;14.300;2022-08-26T14:46:51;8.95;;;4.30;;
17592;SDS011;8915;51.760;14.300;2022-08-26T14:49:20;10.32;;;5.45;;
17592;SDS011;8915;51.760;14.300;2022-08-26T14:51:48;8.30;;;5.80;;
17592;SDS011;8915;51.760;14.300;2022-08-26T14:54:15;10.05;;;6.38;;
17592;SDS011;8915;51.760;14.300;2022-08-26T14:56:44;9.60;;;6.55;;
17592;SDS011;8915;51.760;14.300;2022-08-26T14:59:37;10.90;;;6.90;;
17592;SDS011;8915;51.760;14.300;2022-08-26T15:03:22;10.77;;;7.70;;
17592;SDS011;8915;51.760;14.300;2022-08-26T15:10:23;9.60;;;6.40;;
17592;SDS011;8915;51.760;14.300;2022-08-26T15:17:10;9.40;;;6.97;;
17592;SDS011;8915;51.760;14.300;2022-08-26T15:20:46;8.30;;;6.60;;
17592;SDS011;8915;51.760;14.300;2022-08-26T15:35:09;8.07;;;5.43;;
17592;SDS011;8915;51.760;14.300;2022-08-26T15:39:04;7.77;;;5.40;;
17592;SDS011;8915;51.760;14.300;2022-08-26T15:42:31;8.07;;;5.27;;
17592;SDS011;8915;51.760;14.300;2022-08-26T16:00:37;10.20;;;6.17;;
17592;SDS011;8915;51.760;14.300;2022-08-26T16:04:02;8.47;;;5.80;;